Terminal Aerodrome Forecast
Issued by NWS Chicago, IL

Home | Current Version | Previous Version | Graphics & Text | Print | Product List | Glossary On
Versions: 1 2 3 4 5 6 7 8 9 10 11 12 13 14 15 16 17 18 19 20 21 22
228
FTUS43 KLOT 290900 AAB
TAFRFD
TAF AMD
KRFD 290900Z 2909/3006 36014G22KT P6SM BKN010
     FM291400 02016G24KT P6SM SCT015 BKN040
     FM292100 02015G23KT P6SM VCSH BKN035
     FM300200 03012KT P6SM BKN025=

USA.gov is the U.S. government's official web portal to all federal, state and local government web resources and services.